Time;durP1;ratioP1;P1;durP2;ratioP2;P2;SDS_P1;SDS_P2;PMS_P1;PMS_P2;Temp;Humidity;BMP_temperature;BMP_pressure;BME280_temperature;BME280_humidity;BME280_pressure;Samples;Min_cycle;Max_cycle;Signal;HPM_P1;HPM_P2
2023/10/08 00:01:21;;;;;;;5.68;3.90;;;14.80;99.90;;;;;;5075823;28;20183;-75
2023/10/08 00:03:57;;;;;;;5.50;3.90;;;14.80;99.90;;;;;;5084218;28;20043;-75
2023/10/08 00:06:23;;;;;;;5.20;3.70;;;14.70;99.90;;;;;;5072084;28;20429;-74
2023/10/08 00:08:50;;;;;;;5.32;2.90;;;14.70;99.90;;;;;;5079116;28;20081;-74
2023/10/08 00:11:16;;;;;;;3.47;2.55;;;14.60;99.90;;;;;;5082988;28;20520;-75
2023/10/08 00:13:43;;;;;;;5.38;2.42;;;14.60;99.90;;;;;;5071042;28;20040;-75
2023/10/08 00:16:17;;;;;;;4.60;2.90;;;14.50;99.90;;;;;;5069830;28;20059;-75
2023/10/08 00:18:50;;;;;;;4.88;2.45;;;14.50;99.90;;;;;;5071306;28;20056;-75
2023/10/08 00:21:19;;;;;;;4.43;2.70;;;14.50;99.90;;;;;;5090306;28;20093;-75
2023/10/08 00:24:02;;;;;;;3.85;2.30;;;14.40;99.90;;;;;;5070946;28;20086;-75
2023/10/08 00:26:31;;;;;;;2.90;2.22;;;14.40;99.90;;;;;;5072616;28;20681;-75
2023/10/08 00:28:59;;;;;;;4.47;2.47;;;14.30;99.90;;;;;;5094356;27;20031;-74
2023/10/08 00:31:30;;;;;;;3.83;2.45;;;14.30;99.90;;;;;;5076677;28;20047;-75
2023/10/08 00:33:56;;;;;;;3.97;2.10;;;14.40;99.90;;;;;;5095393;28;20039;-75
2023/10/08 00:36:23;;;;;;;3.45;2.05;;;14.30;99.90;;;;;;5068179;28;20082;-75
2023/10/08 00:38:53;;;;;;;4.63;2.20;;;14.40;99.90;;;;;;5097195;28;20086;-75
2023/10/08 00:41:22;;;;;;;4.00;2.22;;;14.40;99.90;;;;;;5099163;28;20047;-74
2023/10/08 00:43:48;;;;;;;3.50;2.25;;;14.40;99.90;;;;;;5075789;28;20130;-75
2023/10/08 00:48:46;;;;;;;2.83;2.13;;;14.40;99.90;;;;;;5080417;28;20143;-75
2023/10/08 00:53:52;;;;;;;2.40;2.20;;;14.40;99.90;;;;;;5070504;28;20135;-76
2023/10/08 00:56:19;;;;;;;3.15;2.33;;;14.40;99.90;;;;;;5069494;28;20082;-75
2023/10/08 00:58:52;;;;;;;3.35;2.20;;;14.40;99.90;;;;;;5081516;28;20553;-75
2023/10/08 01:01:20;;;;;;;3.95;2.35;;;14.40;99.90;;;;;;5070413;28;20060;-75
2023/10/08 01:03:49;;;;;;;3.90;2.55;;;14.40;99.90;;;;;;5069995;28;20040;-75
2023/10/08 01:06:20;;;;;;;4.05;2.50;;;14.40;99.90;;;;;;5096404;28;20051;-75
2023/10/08 01:08:52;;;;;;;4.85;2.38;;;14.40;99.90;;;;;;5068044;28;20086;-75
2023/10/08 01:11:46;;;;;;;3.05;2.50;;;14.40;99.90;;;;;;5074514;28;20049;-75
2023/10/08 01:14:11;;;;;;;2.65;2.45;;;14.40;99.90;;;;;;5100524;28;20119;-75
2023/10/08 01:16:39;;;;;;;3.17;2.22;;;14.40;99.90;;;;;;5074287;28;20602;-75
2023/10/08 01:19:12;;;;;;;5.28;2.40;;;14.40;99.90;;;;;;5069399;28;20044;-75
2023/10/08 01:21:39;;;;;;;2.78;2.20;;;14.40;99.90;;;;;;5069843;28;20058;-75
2023/10/08 01:24:06;;;;;;;2.70;2.25;;;14.40;99.90;;;;;;5096295;28;20097;-75
2023/10/08 01:26:34;;;;;;;3.97;2.40;;;14.40;99.90;;;;;;5092307;28;20036;-75
2023/10/08 01:29:03;;;;;;;;;;;14.40;99.90;;;;;;5070394;28;20079;-75
2023/10/08 01:31:29;;;;;;;3.20;2.28;;;14.40;99.90;;;;;;5091859;28;20610;-76
2023/10/08 01:33:56;;;;;;;5.45;2.80;;;14.40;99.90;;;;;;5072571;28;20054;-75
2023/10/08 01:36:25;;;;;;;2.65;2.45;;;14.30;99.90;;;;;;5078302;28;20543;-75
2023/10/08 01:38:51;;;;;;;4.03;2.80;;;14.40;99.90;;;;;;5099335;28;20115;-75
2023/10/08 01:41:22;;;;;;;3.65;2.40;;;14.30;99.90;;;;;;5093285;28;20043;-76
2023/10/08 01:43:52;;;;;;;2.75;2.55;;;14.30;99.90;;;;;;5103065;28;20078;-75
2023/10/08 01:46:21;;;;;;;4.57;2.45;;;14.30;99.90;;;;;;5079106;28;20048;-75
2023/10/08 01:48:52;;;;;;;3.03;2.60;;;14.30;99.90;;;;;;5074600;28;20508;-75
2023/10/08 01:51:24;;;;;;;3.95;2.72;;;14.40;99.90;;;;;;5099876;28;20048;-75
2023/10/08 01:53:58;;;;;;;4.05;2.92;;;14.40;99.90;;;;;;5098218;28;20130;-75
2023/10/08 01:56:24;;;;;;;2.75;2.53;;;14.40;99.90;;;;;;5080630;28;20618;-75
2023/10/08 01:58:50;;;;;;;4.43;2.72;;;14.30;99.90;;;;;;5102049;28;20035;-75
2023/10/08 02:01:20;;;;;;;3.55;2.70;;;14.40;99.90;;;;;;5073308;28;20075;-75
2023/10/08 02:03:46;;;;;;;2.72;2.53;;;14.40;99.90;;;;;;5087223;28;20050;-75
2023/10/08 02:06:12;;;;;;;4.75;2.72;;;14.40;99.90;;;;;;5072584;28;20123;-75
2023/10/08 02:08:38;;;;;;;4.05;2.80;;;14.40;99.90;;;;;;5056697;28;20044;-75
2023/10/08 02:11:04;;;;;;;4.45;2.70;;;14.40;99.90;;;;;;5076343;28;20081;-74
2023/10/08 02:13:30;;;;;;;3.47;2.55;;;14.40;99.90;;;;;;5077802;28;20048;-74
2023/10/08 02:15:56;;;;;;;3.20;2.75;;;14.40;99.90;;;;;;5078622;28;20163;-74
2023/10/08 02:18:25;;;;;;;4.28;2.67;;;14.30;99.90;;;;;;5078259;28;20115;-75
2023/10/08 02:20:51;;;;;;;4.28;2.80;;;14.30;99.90;;;;;;5073412;28;20054;-75
2023/10/08 02:23:18;;;;;;;3.10;2.80;;;14.30;99.90;;;;;;5074648;28;20051;-75
2023/10/08 02:25:44;;;;;;;4.05;3.35;;;14.30;99.90;;;;;;5077913;28;20048;-74
2023/10/08 02:28:12;;;;;;;3.33;2.70;;;14.30;99.90;;;;;;5073276;28;20138;-75
2023/10/08 02:30:39;;;;;;;3.15;2.72;;;14.30;99.90;;;;;;5081546;28;20050;-74
2023/10/08 02:33:13;;;;;;;3.70;2.90;;;14.20;99.90;;;;;;5100186;28;20055;-74
2023/10/08 02:35:43;;;;;;;3.20;2.88;;;14.20;99.90;;;;;;5081584;28;20040;-74
2023/10/08 02:38:16;;;;;;;3.25;2.80;;;14.20;99.90;;;;;;5094548;28;20483;-75
2023/10/08 02:40:47;;;;;;;4.32;2.85;;;14.20;99.90;;;;;;5072830;28;20126;-75
2023/10/08 02:43:15;;;;;;;3.28;2.90;;;14.20;99.90;;;;;;5100933;28;20051;-74
2023/10/08 02:45:41;;;;;;;2.70;2.50;;;14.30;99.90;;;;;;5075644;28;20053;-75
2023/10/08 02:48:13;;;;;;;3.22;2.92;;;14.20;99.90;;;;;;5072331;28;20086;-74
2023/10/08 02:50:44;;;;;;;4.25;2.90;;;14.20;99.90;;;;;;5072959;28;20126;-74
2023/10/08 02:53:12;;;;;;;4.40;2.80;;;14.20;99.90;;;;;;5079702;28;20130;-74
2023/10/08 02:55:43;;;;;;;3.30;2.92;;;14.20;99.90;;;;;;5077636;28;20477;-74
2023/10/08 02:58:14;;;;;;;4.55;3.42;;;14.20;99.90;;;;;;5087046;28;20101;-74
2023/10/08 03:00:41;;;;;;;4.13;3.15;;;14.20;99.90;;;;;;5103068;28;20047;-75
2023/10/08 03:03:15;;;;;;;5.05;3.10;;;14.20;99.90;;;;;;5089700;28;20111;-75
2023/10/08 03:05:46;;;;;;;3.90;2.97;;;14.10;99.90;;;;;;5076354;28;20044;-75
2023/10/08 03:08:20;;;;;;;3.45;3.03;;;14.10;99.90;;;;;;5072674;28;20046;-75
2023/10/08 03:10:56;;;;;;;3.75;3.10;;;14.10;99.90;;;;;;5099632;28;20053;-75
2023/10/08 03:13:22;;;;;;;4.18;3.08;;;14.10;99.90;;;;;;5061958;28;20119;-74
2023/10/08 03:18:35;;;;;;;3.92;2.90;;;14.10;99.90;;;;;;5082447;28;20514;-75
2023/10/08 03:21:06;;;;;;;4.22;2.90;;;14.10;99.90;;;;;;5082016;28;20712;-74
2023/10/08 03:23:35;;;;;;;4.07;3.03;;;14.10;99.90;;;;;;5076323;28;20479;-74
2023/10/08 03:26:10;;;;;;;4.65;3.28;;;14.10;99.90;;;;;;5080048;28;20479;-74
2023/10/08 03:28:37;;;;;;;4.45;3.28;;;14.00;99.90;;;;;;5073786;28;20047;-74
2023/10/08 03:31:15;;;;;;;4.68;3.47;;;14.00;99.90;;;;;;5071658;28;20569;-74
2023/10/08 03:33:43;;;;;;;4.15;3.45;;;14.00;99.90;;;;;;5068952;28;20134;-75
2023/10/08 03:36:14;;;;;;;3.70;3.22;;;14.00;99.90;;;;;;5082630;28;20467;-74
2023/10/08 03:39:13;;;;;;;3.53;2.92;;;14.00;99.90;;;;;;5072102;28;20503;-74
2023/10/08 03:41:32;;;;;;;5.25;3.70;;;14.00;99.90;;;;;;5093265;28;20071;-75
2023/10/08 03:44:12;;;;;;;3.50;3.20;;;14.00;99.90;;;;;;5073367;28;20075;-74
2023/10/08 03:46:40;;;;;;;4.13;3.30;;;14.10;99.90;;;;;;5081597;28;20376;-74
2023/10/08 03:49:14;;;;;;;5.18;3.28;;;14.00;99.90;;;;;;5077911;28;20052;-74
2023/10/08 03:51:40;;;;;;;4.72;3.50;;;14.00;99.90;;;;;;5077176;28;20101;-74
2023/10/08 03:56:36;;;;;;;3.95;3.10;;;14.00;99.90;;;;;;5083826;28;20055;-74
2023/10/08 03:59:12;;;;;;;;;;;14.00;99.90;;;;;;5084598;28;20123;-74
2023/10/08 04:01:42;;;;;;;4.25;3.30;;;14.00;99.90;;;;;;5071333;28;19920;-74
2023/10/08 04:04:14;;;;;;;4.57;3.22;;;14.00;99.90;;;;;;5082287;28;20048;-75
2023/10/08 04:06:47;;;;;;;3.92;2.97;;;14.00;99.90;;;;;;5073707;28;20082;-74
2023/10/08 04:09:23;;;;;;;4.03;3.33;;;14.00;99.90;;;;;;5072202;28;20085;-74
2023/10/08 04:12:03;;;;;;;5.13;3.58;;;13.90;99.90;;;;;;5089574;28;20054;-74
2023/10/08 04:14:29;;;;;;;4.53;3.53;;;13.90;99.90;;;;;;5070347;28;20493;-75
2023/10/08 04:16:55;;;;;;;4.50;3.88;;;13.90;99.90;;;;;;5096167;28;20131;-74
2023/10/08 04:19:29;;;;;;;4.75;3.80;;;13.90;99.90;;;;;;5097821;28;20150;-75
2023/10/08 04:21:56;;;;;;;5.80;4.13;;;13.90;99.90;;;;;;5070564;28;20062;-75
2023/10/08 04:24:34;;;;;;;5.75;3.85;;;13.90;99.90;;;;;;5081820;28;20127;-75
2023/10/08 04:27:05;;;;;;;4.10;3.47;;;13.90;99.90;;;;;;5076310;28;20565;-75
2023/10/08 04:29:32;;;;;;;4.03;3.42;;;13.90;99.90;;;;;;5075491;28;20617;-74
2023/10/08 04:32:01;;;;;;;6.05;4.22;;;14.00;99.90;;;;;;5075500;28;20483;-75
2023/10/08 04:34:28;;;;;;;5.43;4.07;;;14.00;99.90;;;;;;5073159;28;20055;-75
2023/10/08 04:36:54;;;;;;;4.82;4.30;;;13.90;99.90;;;;;;5084631;28;20063;-74
2023/10/08 04:39:31;;;;;;;6.50;4.70;;;13.90;99.90;;;;;;5074378;28;20048;-75
2023/10/08 04:41:59;;;;;;;;;;;13.90;99.90;;;;;;5071497;28;20063;-75
2023/10/08 04:44:31;;;;;;;5.95;4.43;;;13.90;99.90;;;;;;5072105;28;19945;-75
2023/10/08 04:47:04;;;;;;;6.97;4.38;;;13.90;99.90;;;;;;5070533;28;20399;-75
2023/10/08 04:49:32;;;;;;;5.53;4.13;;;13.90;99.90;;;;;;5080793;28;20051;-75
2023/10/08 04:52:13;;;;;;;5.43;4.05;;;13.90;99.90;;;;;;5095724;28;20065;-75
2023/10/08 04:54:43;;;;;;;9.65;4.25;;;13.90;99.90;;;;;;5068981;28;20207;-75
2023/10/08 04:57:15;;;;;;;6.82;3.88;;;13.90;99.90;;;;;;5090461;28;20032;-75
2023/10/08 04:59:46;;;;;;;5.38;3.28;;;13.90;99.90;;;;;;5071736;28;20059;-75
2023/10/08 05:04:56;;;;;;;5.30;3.63;;;13.90;99.90;;;;;;5070715;28;20063;-74
2023/10/08 05:13:15;;;;;;;5.40;2.95;;;13.90;99.90;;;;;;5082122;28;20139;-75
2023/10/08 05:15:49;;;;;;;4.57;2.38;;;13.90;99.90;;;;;;5073617;28;20083;-75
2023/10/08 05:28:26;;;;;;;8.15;2.40;;;13.80;99.90;;;;;;5096144;28;20510;-74
2023/10/08 05:31:11;;;;;;;6.40;2.20;;;13.90;99.90;;;;;;5071079;28;20465;-74
2023/10/08 05:36:28;;;;;;;5.20;2.20;;;13.90;99.90;;;;;;5108412;28;20051;-75
2023/10/08 05:39:00;;;;;;;5.63;2.28;;;13.90;99.90;;;;;;5075036;28;20048;-74
2023/10/08 05:41:39;;;;;;;6.32;2.30;;;13.90;99.90;;;;;;5077302;28;20512;-74
2023/10/08 05:44:14;;;;;;;5.05;2.22;;;13.90;99.90;;;;;;5085798;28;20039;-74
2023/10/08 05:57:24;;;;;;;7.32;2.30;;;13.80;99.90;;;;;;5100749;28;20582;-75
2023/10/08 06:07:50;;;;;;;5.03;2.13;;;13.80;99.90;;;;;;5073016;28;20048;-74
2023/10/08 06:13:13;;;;;;;5.57;2.60;;;13.80;99.90;;;;;;5081466;28;20066;-74
2023/10/08 06:18:25;;;;;;;5.63;2.40;;;13.80;99.90;;;;;;5071918;28;20395;-74
2023/10/08 06:20:55;;;;;;;5.25;2.28;;;13.80;99.90;;;;;;5072084;28;20483;-75
2023/10/08 06:23:23;;;;;;;6.13;2.30;;;13.90;99.90;;;;;;5076740;28;20035;-75
2023/10/08 06:26:05;;;;;;;;;;;13.80;99.90;;;;;;5083330;28;20047;-75
2023/10/08 06:28:33;;;;;;;7.88;2.67;;;13.80;99.90;;;;;;5072010;28;19931;-74
2023/10/08 06:31:01;;;;;;;6.28;2.50;;;13.80;99.90;;;;;;5078206;28;20123;-74
2023/10/08 06:33:33;;;;;;;8.15;2.50;;;13.80;99.90;;;;;;5083730;28;20563;-74
2023/10/08 06:36:13;;;;;;;8.55;2.65;;;13.90;99.90;;;;;;5080627;28;20081;-75
2023/10/08 06:38:44;;;;;;;11.70;2.83;;;13.90;99.90;;;;;;5074311;28;20048;-76
2023/10/08 06:43:43;;;;;;;8.40;2.45;;;13.90;99.90;;;;;;5098206;28;20052;-75
2023/10/08 06:46:12;;;;;;;8.07;2.63;;;14.00;99.90;;;;;;5075902;28;20040;-76
2023/10/08 06:48:45;;;;;;;6.30;2.28;;;14.00;99.90;;;;;;5085808;28;20056;-78
2023/10/08 06:51:17;;;;;;;7.28;2.50;;;14.00;99.90;;;;;;5074157;28;20068;-73
2023/10/08 06:53:45;;;;;;;5.85;2.65;;;14.00;99.90;;;;;;5092717;28;20047;-73
2023/10/08 06:56:12;;;;;;;9.73;2.70;;;14.00;99.90;;;;;;5075237;28;20052;-78
2023/10/08 06:58:40;;;;;;;6.32;2.40;;;14.00;99.90;;;;;;5078904;28;20072;-76
2023/10/08 07:01:08;;;;;;;7.18;2.50;;;14.10;99.90;;;;;;5099099;28;20403;-73
2023/10/08 07:03:35;;;;;;;9.60;2.50;;;14.10;99.90;;;;;;5077548;28;20040;-74
2023/10/08 07:06:02;;;;;;;8.95;2.70;;;14.10;99.90;;;;;;5093646;28;20032;-75
2023/10/08 07:08:32;;;;;;;6.07;2.30;;;14.20;99.90;;;;;;5098162;28;20061;-75
2023/10/08 07:11:01;;;;;;;6.15;2.40;;;14.20;99.90;;;;;;5078313;28;20043;-74
2023/10/08 07:13:29;;;;;;;7.13;2.30;;;14.30;99.90;;;;;;5071887;28;20542;-73
2023/10/08 07:15:56;;;;;;;9.95;2.15;;;14.30;99.90;;;;;;5090943;28;20047;-73
2023/10/08 07:18:25;;;;;;;6.60;1.88;;;14.30;99.90;;;;;;5071780;28;20036;-75
2023/10/08 07:21:00;;;;;;;5.72;1.70;;;14.30;99.90;;;;;;5083380;28;20044;-74
2023/10/08 07:23:29;;;;;;;6.22;2.08;;;14.30;99.90;;;;;;5082098;28;20044;-73
2023/10/08 07:26:12;;;;;;;7.32;2.03;;;14.30;99.90;;;;;;5083541;28;20399;-75
2023/10/08 07:28:39;;;;;;;7.68;1.92;;;14.40;99.90;;;;;;5082707;28;20101;-72
2023/10/08 07:31:16;;;;;;;8.07;2.30;;;14.40;99.90;;;;;;5072203;28;20106;-77
2023/10/08 07:33:46;;;;;;;8.55;2.30;;;14.40;99.90;;;;;;5093779;28;20052;-76
2023/10/08 07:36:12;;;;;;;6.28;2.17;;;14.50;99.90;;;;;;5086691;28;20047;-74
2023/10/08 07:38:44;;;;;;;11.02;2.22;;;14.50;99.90;;;;;;5079249;28;20048;-73
2023/10/08 07:41:14;;;;;;;8.10;1.92;;;14.50;99.90;;;;;;5099408;28;20040;-75
2023/10/08 07:43:46;;;;;;;5.38;1.80;;;14.40;99.90;;;;;;5073008;28;20048;-75
2023/10/08 07:46:15;;;;;;;6.15;1.70;;;14.50;99.90;;;;;;5078692;28;20040;-75
2023/10/08 07:48:43;;;;;;;4.85;1.63;;;14.50;99.90;;;;;;5076763;28;20046;-75
2023/10/08 07:51:09;;;;;;;7.65;2.15;;;14.50;99.90;;;;;;5090889;28;20063;-76
2023/10/08 07:53:38;;;;;;;6.53;1.70;;;14.60;99.90;;;;;;5094585;28;20403;-76
2023/10/08 07:56:06;;;;;;;9.68;2.50;;;14.60;99.90;;;;;;5098732;28;20044;-76
2023/10/08 07:58:36;;;;;;;9.98;2.20;;;14.60;99.90;;;;;;5101515;28;20032;-75
2023/10/08 08:01:08;;;;;;;6.97;1.58;;;14.70;99.90;;;;;;5080407;28;20784;-76
2023/10/08 08:03:36;;;;;;;9.60;1.90;;;14.70;99.90;;;;;;5079100;28;20036;-76
2023/10/08 08:06:06;;;;;;;8.98;2.15;;;14.70;99.90;;;;;;5075711;28;20689;-76
2023/10/08 08:08:36;;;;;;;7.07;1.65;;;14.80;99.90;;;;;;5072128;28;20059;-75
2023/10/08 08:11:07;;;;;;;6.18;1.70;;;14.80;99.90;;;;;;5097356;28;20043;-75
2023/10/08 08:13:34;;;;;;;8.02;1.55;;;14.80;99.90;;;;;;5103242;28;20115;-76
2023/10/08 08:16:09;;;;;;;7.03;1.67;;;14.90;99.90;;;;;;5076358;28;20070;-76
2023/10/08 08:18:38;;;;;;;7.45;2.00;;;14.90;99.90;;;;;;5098641;28;20043;-76
2023/10/08 08:21:13;;;;;;;5.93;2.03;;;15.00;99.90;;;;;;5080531;28;20036;-75
2023/10/08 08:23:40;;;;;;;9.20;2.15;;;15.00;99.90;;;;;;5072944;28;20060;-76
2023/10/08 08:26:26;;;;;;;8.88;1.80;;;15.00;99.90;;;;;;5083704;28;20056;-76
2023/10/08 08:28:51;;;;;;;4.82;1.48;;;15.10;99.90;;;;;;5078297;28;20042;-76
2023/10/08 08:31:19;;;;;;;7.47;1.80;;;15.10;99.90;;;;;;5081102;28;20115;-76
2023/10/08 08:33:56;;;;;;;7.93;1.80;;;15.10;99.90;;;;;;5094733;28;20092;-77
2023/10/08 08:36:23;;;;;;;7.63;2.22;;;15.20;99.90;;;;;;5083980;28;20044;-76
2023/10/08 08:38:50;;;;;;;6.03;1.98;;;15.20;99.90;;;;;;5045982;22;20052;-76
2023/10/08 08:41:18;;;;;;;8.13;2.00;;;15.20;99.90;;;;;;5026829;28;20107;-76
2023/10/08 08:43:47;;;;;;;8.35;1.77;;;15.10;99.90;;;;;;5023933;28;20671;-75
2023/10/08 08:46:13;;;;;;;8.90;1.92;;;15.10;99.90;;;;;;5028440;28;20077;-77
2023/10/08 08:48:50;;;;;;;6.68;1.73;;;15.10;99.90;;;;;;5025899;28;20061;-76
2023/10/08 08:51:15;;;;;;;10.13;1.80;;;15.10;99.90;;;;;;5022950;28;20482;-76
2023/10/08 08:53:41;;;;;;;7.40;1.70;;;15.10;99.90;;;;;;5027079;28;20073;-76
2023/10/08 08:56:12;;;;;;;9.15;1.75;;;15.10;99.90;;;;;;5023681;28;20045;-75
2023/10/08 08:58:39;;;;;;;9.30;2.00;;;15.10;99.90;;;;;;5025006;28;20071;-76
2023/10/08 09:01:09;;;;;;;7.95;1.70;;;15.20;99.90;;;;;;5026146;28;20103;-76
2023/10/08 09:03:37;;;;;;;9.05;1.60;;;15.20;99.90;;;;;;5027204;28;20374;-76
2023/10/08 09:06:04;;;;;;;7.88;1.85;;;15.20;99.90;;;;;;5028376;28;20045;-75
2023/10/08 09:08:37;;;;;;;11.05;1.80;;;15.30;99.90;;;;;;5020976;28;20156;-76
2023/10/08 09:11:08;;;;;;;8.38;1.80;;;15.30;99.90;;;;;;5023336;28;20050;-75
2023/10/08 09:13:35;;;;;;;7.20;1.70;;;15.40;99.90;;;;;;5022160;28;20049;-75
2023/10/08 09:16:11;;;;;;;7.80;1.50;;;15.40;99.90;;;;;;5017081;28;20045;-75
2023/10/08 09:18:36;;;;;;;6.00;1.42;;;15.50;99.90;;;;;;5019840;28;20072;-80
2023/10/08 09:21:14;;;;;;;7.18;1.98;;;15.60;99.90;;;;;;5023916;28;20073;-79
2023/10/08 09:23:44;;;;;;;9.23;1.90;;;15.70;99.90;;;;;;5022554;28;20065;-81
2023/10/08 09:26:13;;;;;;;8.75;1.95;;;15.70;99.90;;;;;;5027935;28;20030;-81
2023/10/08 09:28:40;;;;;;;8.68;1.88;;;15.70;99.90;;;;;;5014661;28;20049;-79
2023/10/08 09:31:11;;;;;;;8.85;1.70;;;15.80;99.90;;;;;;5027186;28;20028;-83
2023/10/08 09:33:37;;;;;;;8.65;1.70;;;15.90;99.90;;;;;;5023407;28;20045;-81
2023/10/08 09:36:06;;;;;;;8.83;1.80;;;16.00;99.90;;;;;;5024781;28;20152;-80
2023/10/08 09:38:33;;;;;;;7.65;1.95;;;16.10;99.90;;;;;;5020545;28;20064;-81
2023/10/08 09:41:02;;;;;;;7.45;1.90;;;16.20;99.90;;;;;;5011439;28;20056;-80
2023/10/08 09:43:29;;;;;;;7.22;1.70;;;16.20;99.90;;;;;;5015331;28;20034;-79
2023/10/08 09:46:15;;;;;;;6.67;1.50;;;16.20;99.90;;;;;;5017149;28;20412;-77
2023/10/08 09:48:44;;;;;;;10.00;2.83;;;16.30;99.90;;;;;;5014709;28;20041;-75
2023/10/08 09:51:12;;;;;;;6.90;1.60;;;16.40;99.90;;;;;;5013776;28;20049;-77
2023/10/08 09:54:10;;;;;;;8.13;1.77;;;16.40;99.90;;;;;;5026571;28;20095;-76
2023/10/08 09:56:39;;;;;;;8.02;2.10;;;16.40;99.90;;;;;;5026289;28;21793;-76
2023/10/08 09:59:04;;;;;;;9.73;1.98;;;16.40;99.90;;;;;;5012321;28;20064;-77
2023/10/08 10:01:32;;;;;;;8.43;1.85;;;16.40;99.90;;;;;;5018868;28;20049;-77
2023/10/08 10:03:59;;;;;;;;;;;16.50;99.90;;;;;;5019748;28;20045;-80
2023/10/08 10:06:26;;;;;;;10.70;2.05;;;16.50;99.90;;;;;;5019930;28;19921;-77
2023/10/08 10:08:55;;;;;;;9.23;2.20;;;16.50;99.90;;;;;;5022455;28;20457;-81
2023/10/08 10:11:20;;;;;;;8.02;1.60;;;16.60;99.90;;;;;;5015487;28;20133;-78
2023/10/08 10:13:52;;;;;;;12.13;1.80;;;16.60;99.90;;;;;;5015696;28;20122;-77
2023/10/08 10:16:21;;;;;;;9.38;2.00;;;16.60;99.90;;;;;;5019001;28;20057;-77
2023/10/08 10:18:49;;;;;;;9.45;2.20;;;16.60;99.90;;;;;;5018069;28;20050;-79
2023/10/08 10:21:15;;;;;;;10.23;2.00;;;16.60;99.90;;;;;;5027353;28;20045;-78
2023/10/08 10:23:53;;;;;;;9.50;2.03;;;16.60;99.90;;;;;;5020019;28;20046;-78
2023/10/08 10:26:30;;;;;;;7.75;1.73;;;16.70;99.90;;;;;;5009963;28;20038;-79
2023/10/08 10:29:14;;;;;;;9.95;2.38;;;16.70;99.90;;;;;;5018873;28;20080;-79
2023/10/08 10:32:06;;;;;;;11.43;2.28;;;16.80;99.90;;;;;;5010363;28;20060;-78
2023/10/08 10:34:34;;;;;;;8.70;1.80;;;16.80;99.90;;;;;;5021237;28;20050;-78
2023/10/08 10:37:19;;;;;;;11.80;2.22;;;16.80;99.90;;;;;;5015182;28;20053;-81
2023/10/08 10:40:00;;;;;;;7.00;1.83;;;16.80;99.90;;;;;;5018710;28;20056;-82
2023/10/08 10:42:29;;;;;;;8.50;2.35;;;16.90;99.90;;;;;;5014939;28;20054;-79
2023/10/08 10:44:56;;;;;;;12.65;2.15;;;16.90;99.90;;;;;;5009715;28;20042;-77
2023/10/08 10:49:52;;;;;;;10.95;2.33;;;16.90;99.90;;;;;;5027612;28;20505;-78
2023/10/08 10:52:32;;;;;;;8.30;2.15;;;16.90;99.90;;;;;;5025300;28;20088;-77
2023/10/08 10:57:54;;;;;;;6.32;2.13;;;16.90;99.90;;;;;;5016039;28;20060;-77
2023/10/08 11:03:02;;;;;;;10.95;2.00;;;16.80;99.90;;;;;;5024408;28;20559;-79
2023/10/08 11:05:36;;;;;;;9.57;2.25;;;16.80;99.90;;;;;;5018531;28;20129;-76
2023/10/08 11:08:05;;;;;;;7.75;1.85;;;16.80;99.90;;;;;;5018012;28;20992;-75
2023/10/08 11:10:42;;;;;;;9.15;2.33;;;16.70;99.90;;;;;;5020416;28;20053;-74
2023/10/08 11:13:14;;;;;;;7.03;1.85;;;16.80;99.90;;;;;;5019536;28;20022;-79
2023/10/08 11:15:54;;;;;;;11.07;2.08;;;16.80;99.90;;;;;;5011752;28;20481;-78
2023/10/08 11:18:21;;;;;;;9.70;2.65;;;16.80;99.90;;;;;;5023163;28;20046;-78
2023/10/08 11:21:09;;;;;;;8.18;2.28;;;16.80;99.90;;;;;;5024167;28;20037;-78
2023/10/08 11:23:37;;;;;;;10.32;2.28;;;16.80;99.90;;;;;;5021907;28;20049;-78
2023/10/08 11:26:06;;;;;;;5.88;1.73;;;16.80;99.90;;;;;;5014687;28;20065;-80
2023/10/08 11:28:34;;;;;;;8.07;1.90;;;16.90;99.90;;;;;;5010374;28;20139;-79
2023/10/08 11:31:10;;;;;;;9.88;2.30;;;17.00;99.90;;;;;;5017251;28;20507;-78
2023/10/08 11:33:53;;;;;;;9.75;2.22;;;17.10;99.90;;;;;;5016101;28;20109;-78
2023/10/08 11:36:22;;;;;;;8.10;2.05;;;17.10;99.90;;;;;;5016170;28;20850;-78
2023/10/08 11:38:48;;;;;;;9.35;2.67;;;17.20;99.90;;;;;;5021672;28;20050;-77
2023/10/08 11:41:21;;;;;;;9.07;2.20;;;17.20;99.90;;;;;;5016465;28;20056;-77
2023/10/08 11:43:48;;;;;;;7.50;2.22;;;17.30;99.90;;;;;;5009459;28;20045;-77
2023/10/08 11:46:18;;;;;;;7.43;1.98;;;17.40;99.90;;;;;;5020183;28;20085;-80
2023/10/08 11:48:46;;;;;;;10.05;2.08;;;17.50;99.90;;;;;;5020504;28;20448;-84
2023/10/08 11:51:16;;;;;;;7.47;1.70;;;17.50;99.90;;;;;;5017179;28;20183;-81
2023/10/08 11:53:44;;;;;;;7.95;1.88;;;17.60;99.90;;;;;;5020718;28;20144;-82
2023/10/08 11:56:13;;;;;;;;;;;17.70;99.90;;;;;;5016898;28;20042;-80
2023/10/08 11:58:40;;;;;;;9.00;2.17;;;17.70;99.90;;;;;;5015473;28;19929;-79
2023/10/08 12:01:06;;;;;;;9.02;1.70;;;17.70;99.90;;;;;;5018383;28;20053;-83
2023/10/08 12:03:34;;;;;;;7.75;2.00;;;17.70;99.90;;;;;;5025317;28;20045;-79
2023/10/08 12:06:00;;;;;;;11.15;2.03;;;17.80;99.90;;;;;;5022825;28;20049;-80
2023/10/08 12:08:27;;;;;;;7.18;1.80;;;17.80;99.90;;;;;;5010183;28;20564;-80
2023/10/08 12:10:56;;;;;;;8.32;1.67;;;17.90;99.90;;;;;;5025086;28;20049;-81
2023/10/08 12:13:25;;;;;;;7.28;1.85;;;18.00;99.90;;;;;;5007905;28;20128;-79
2023/10/08 12:16:05;;;;;;;8.18;1.77;;;18.10;99.90;;;;;;5019024;28;20042;-80
2023/10/08 12:18:34;;;;;;;10.70;1.92;;;18.20;99.90;;;;;;5007719;28;20140;-80
2023/10/08 12:21:01;;;;;;;6.18;1.50;;;18.30;99.90;;;;;;5017674;28;20083;-85
2023/10/08 12:23:28;;;;;;;7.00;2.22;;;18.40;99.90;;;;;;5020916;28;20038;-83
2023/10/08 12:25:57;;;;;;;6.60;1.67;;;18.50;99.90;;;;;;5024564;28;20049;-83
2023/10/08 12:28:23;;;;;;;8.65;2.17;;;18.60;99.90;;;;;;5022066;28;20485;-79
2023/10/08 12:30:52;;;;;;;4.85;1.52;;;18.70;99.90;;;;;;5020332;28;20045;-80
2023/10/08 12:33:21;;;;;;;6.60;1.77;;;18.60;99.90;;;;;;5022867;28;20116;-79
2023/10/08 12:35:47;;;;;;;7.15;1.55;;;18.70;99.90;;;;;;5023346;28;20049;-77
2023/10/08 12:38:14;;;;;;;9.73;1.63;;;18.70;99.90;;;;;;5017106;28;20104;-79
2023/10/08 12:40:52;;;;;;;6.23;1.90;;;18.60;99.90;;;;;;5012466;28;22110;-80
2023/10/08 12:43:27;;;;;;;6.63;1.90;;;18.60;99.90;;;;;;5025649;28;20710;-80
2023/10/08 12:45:53;;;;;;;7.63;1.48;;;18.70;99.90;;;;;;5022435;28;20133;-80
2023/10/08 12:48:24;;;;;;;7.53;2.20;;;18.70;99.90;;;;;;5022446;28;20080;-84
2023/10/08 12:50:53;;;;;;;6.30;1.88;;;18.70;99.90;;;;;;5032035;28;21006;-90
2023/10/08 12:53:36;;;;;;;9.75;1.63;;;18.70;99.90;;;;;;5026159;28;20136;-88
2023/10/08 12:56:06;;;;;;;6.28;1.70;;;18.70;99.90;;;;;;5016939;28;20080;-87
2023/10/08 12:58:44;;;;;;;5.28;1.70;;;18.70;99.90;;;;;;5021359;28;20099;-86
2023/10/08 13:01:14;;;;;;;7.88;1.77;;;18.70;99.90;;;;;;5010810;28;20046;-86
2023/10/08 13:03:47;;;;;;;7.03;1.80;;;18.70;99.90;;;;;;5010087;28;20073;-86
2023/10/08 13:06:22;;;;;;;7.13;1.60;;;18.70;99.90;;;;;;5015314;28;20556;-89
2023/10/08 13:08:52;;;;;;;7.75;1.55;;;18.70;99.90;;;;;;5016059;28;20042;-88
2023/10/08 13:11:22;;;;;;;6.90;1.38;;;18.60;99.90;;;;;;5020363;28;20494;-82
2023/10/08 13:13:52;;;;;;;4.47;1.40;;;18.60;99.90;;;;;;5021408;28;20480;-83
2023/10/08 13:16:21;;;;;;;5.55;1.40;;;18.60;99.90;;;;;;5021271;28;20041;-83
2023/10/08 13:18:50;;;;;;;4.65;1.52;;;18.50;99.90;;;;;;5018157;28;20057;-82
2023/10/08 13:21:18;;;;;;;5.60;1.60;;;18.40;99.90;;;;;;5017925;28;20046;-86
2023/10/08 13:23:46;;;;;;;5.75;1.70;;;18.50;99.90;;;;;;5016886;28;20053;-81
2023/10/08 13:26:16;;;;;;;7.10;1.67;;;18.50;99.90;;;;;;5022289;28;20041;-84
2023/10/08 13:28:44;;;;;;;5.03;1.45;;;18.50;99.90;;;;;;5019766;28;20046;-82
2023/10/08 13:31:10;;;;;;;7.13;1.98;;;18.50;99.90;;;;;;5021307;28;20030;-82
2023/10/08 13:33:42;;;;;;;7.97;1.90;;;18.50;99.90;;;;;;5024638;28;20088;-86
2023/10/08 13:36:09;;;;;;;5.20;1.25;;;18.60;99.90;;;;;;5022249;28;20803;-80
2023/10/08 13:38:36;;;;;;;5.00;1.40;;;18.60;99.90;;;;;;5027854;28;20049;-81
2023/10/08 13:41:14;;;;;;;6.53;1.63;;;18.60;99.90;;;;;;5025215;28;20435;-82
2023/10/08 13:43:41;;;;;;;5.93;1.63;;;18.60;99.90;;;;;;5020767;28;20497;-84
2023/10/08 13:46:12;;;;;;;6.35;1.92;;;18.60;99.90;;;;;;5017262;28;20045;-87
2023/10/08 13:48:39;;;;;;;7.07;1.58;;;18.60;99.90;;;;;;5020960;28;20053;-87
2023/10/08 13:51:10;;;;;;;7.10;1.60;;;18.60;99.90;;;;;;5017473;28;20041;-89
2023/10/08 13:53:39;;;;;;;5.78;1.40;;;18.70;99.90;;;;;;5018470;28;20385;-87
2023/10/08 13:56:05;;;;;;;7.25;1.70;;;18.70;99.90;;;;;;5026798;28;20123;-83
2023/10/08 13:58:34;;;;;;;6.90;1.40;;;18.60;99.90;;;;;;5023661;28;20095;-82
2023/10/08 14:01:01;;;;;;;9.07;1.70;;;18.60;99.90;;;;;;5024110;28;20049;-84
2023/10/08 14:03:30;;;;;;;10.18;1.63;;;18.50;99.90;;;;;;5024223;28;20053;-86
2023/10/08 14:06:04;;;;;;;7.53;1.60;;;18.50;99.90;;;;;;5021350;28;20051;-84
2023/10/08 14:08:31;;;;;;;5.90;1.70;;;18.40;99.90;;;;;;5013315;28;20050;-83
2023/10/08 14:11:02;;;;;;;4.85;1.67;;;18.40;99.90;;;;;;5006791;28;20042;-85